createdAt,value
2023-03-14T00:00:39.145Z,49.63
2023-03-14T00:01:39.165Z,49.15
2023-03-14T00:02:39.487Z,49.31
2023-03-14T00:03:39.418Z,49.63
2023-03-14T00:04:39.112Z,49.79
2023-03-14T00:05:39.106Z,49.95
2023-03-14T00:06:39.097Z,50.92
2023-03-14T00:07:39.123Z,52.69
2023-03-14T00:08:39.149Z,49.31
2023-03-14T00:09:39.088Z,49.63
2023-03-14T00:10:39.073Z,50.11
2023-03-14T00:11:39.073Z,49.79
2023-03-14T00:12:39.061Z,49.79
2023-03-14T00:13:39.089Z,49.31
2023-03-14T00:14:39.041Z,49.47
2023-03-14T00:15:39.059Z,52.21
2023-03-14T00:16:39.032Z,49.31
2023-03-14T00:17:39.019Z,52.85
2023-03-14T00:18:39.037Z,49.79
2023-03-14T00:19:39.025Z,51.40
2023-03-14T00:20:39.000Z,50.60
2023-03-14T00:21:39.007Z,50.11
2023-03-14T00:22:38.988Z,50.11
2023-03-14T00:23:39.016Z,48.82
2023-03-14T00:24:38.985Z,53.50
2023-03-14T00:25:38.965Z,54.14
2023-03-14T00:26:38.961Z,54.95
2023-03-14T00:27:38.969Z,53.33
2023-03-14T00:28:38.959Z,49.47
2023-03-14T00:29:38.957Z,52.37
2023-03-14T00:30:38.929Z,63.97
2023-03-14T00:31:38.974Z,49.79
2023-03-14T00:32:38.990Z,50.27
2023-03-14T00:33:38.947Z,53.17
2023-03-14T00:34:38.906Z,50.60
2023-03-14T00:35:38.988Z,53.50
2023-03-14T00:36:38.891Z,48.66
2023-03-14T00:37:38.885Z,52.85
2023-03-14T00:38:38.898Z,48.98
2023-03-14T00:39:38.875Z,52.85
2023-03-14T00:40:38.862Z,51.72
2023-03-14T00:41:38.874Z,51.24
2023-03-14T00:42:38.844Z,48.82
2023-03-14T00:43:38.871Z,50.43
2023-03-14T00:44:38.835Z,48.82
2023-03-14T00:45:38.836Z,53.01
2023-03-14T00:46:40.659Z,49.31
2023-03-14T00:47:39.814Z,49.31
2023-03-14T00:48:38.843Z,51.56
2023-03-14T00:49:38.813Z,57.04
2023-03-14T00:50:38.797Z,50.27
2023-03-14T00:51:38.786Z,50.76
2023-03-14T00:52:38.780Z,49.31
2023-03-14T00:53:38.797Z,48.98
2023-03-14T00:54:38.775Z,50.11
2023-03-14T00:55:38.765Z,52.85
2023-03-14T00:56:38.750Z,48.98
2023-03-14T00:57:38.750Z,50.92
2023-03-14T00:58:38.771Z,52.53
2023-03-14T00:59:38.736Z,50.43
2023-03-14T01:00:38.742Z,49.63
2023-03-14T01:01:38.755Z,49.15
2023-03-14T01:02:38.730Z,50.60
2023-03-14T01:03:38.734Z,50.92
2023-03-14T01:04:38.742Z,51.88
2023-03-14T01:05:38.701Z,49.31
2023-03-14T01:06:38.691Z,49.15
2023-03-14T01:07:38.687Z,49.31
2023-03-14T01:08:38.702Z,48.82
2023-03-14T01:09:38.669Z,51.24
2023-03-14T01:10:38.659Z,54.95
2023-03-14T01:11:38.656Z,50.43
2023-03-14T01:12:38.647Z,58.97
2023-03-14T01:13:38.665Z,51.88
2023-03-14T01:14:38.637Z,51.56
2023-03-14T01:15:38.623Z,48.98
2023-03-14T01:16:38.673Z,48.98
2023-03-14T01:17:38.611Z,53.66
2023-03-14T01:18:38.632Z,52.53
2023-03-14T01:19:38.613Z,49.15
2023-03-14T01:20:38.593Z,49.63
2023-03-14T01:21:38.584Z,48.98
2023-03-14T01:22:38.578Z,52.85
2023-03-14T01:23:38.663Z,55.75
2023-03-14T01:24:38.567Z,49.15
2023-03-14T01:25:38.598Z,48.82
2023-03-14T01:26:38.549Z,49.15
2023-03-14T01:27:38.569Z,48.98
2023-03-14T01:28:38.585Z,48.98
2023-03-14T01:29:38.519Z,48.66
2023-03-14T01:30:38.521Z,51.40
2023-03-14T01:31:38.575Z,58.01
2023-03-14T01:32:38.556Z,48.66
2023-03-14T01:33:38.544Z,49.95
2023-03-14T01:34:38.489Z,54.14
2023-03-14T01:35:38.519Z,49.15
2023-03-14T01:36:38.488Z,49.47
2023-03-14T01:37:38.476Z,53.01
2023-03-14T01:38:38.472Z,53.01
2023-03-14T01:39:38.485Z,53.82
2023-03-14T01:40:38.443Z,48.82
2023-03-14T01:41:38.535Z,49.15
2023-03-14T01:42:38.436Z,49.31
2023-03-14T01:43:38.458Z,59.78
2023-03-14T01:44:38.431Z,55.27
2023-03-14T01:45:38.480Z,52.37
2023-03-14T01:46:38.422Z,50.60
2023-03-14T01:47:38.428Z,50.92
2023-03-14T01:48:38.392Z,52.69
2023-03-14T01:49:38.409Z,49.15
2023-03-14T01:50:38.378Z,50.11
2023-03-14T01:51:38.377Z,51.88
2023-03-14T01:52:38.370Z,53.33
2023-03-14T01:53:39.357Z,49.47
2023-03-14T01:54:38.378Z,51.72
2023-03-14T01:55:38.360Z,51.24
2023-03-14T01:56:38.346Z,53.82
2023-03-14T01:57:38.340Z,50.60
2023-03-14T01:58:38.329Z,51.08
2023-03-14T01:59:38.361Z,48.98
2023-03-14T02:00:38.359Z,50.60
2023-03-14T02:01:38.308Z,50.43
2023-03-14T02:02:38.300Z,53.33
2023-03-14T02:03:38.352Z,51.56
2023-03-14T02:04:38.303Z,53.50
2023-03-14T02:05:38.274Z,51.88
2023-03-14T02:06:38.285Z,49.31
2023-03-14T02:07:38.259Z,49.63
2023-03-14T02:08:38.257Z,49.63
2023-03-14T02:09:38.259Z,49.79
2023-03-14T02:10:38.243Z,49.31
2023-03-14T02:11:38.240Z,51.08
2023-03-14T02:12:38.230Z,52.05
2023-03-14T02:13:38.210Z,49.47
2023-03-14T02:14:38.255Z,49.63
2023-03-14T02:15:38.199Z,49.63
2023-03-14T02:16:38.341Z,49.63
2023-03-14T02:17:39.183Z,50.11
2023-03-14T02:18:38.179Z,54.79
2023-03-14T02:19:38.181Z,55.27
2023-03-14T02:20:38.217Z,68.16
2023-03-14T02:21:38.170Z,68.48
2023-03-14T02:22:38.165Z,54.14
2023-03-14T02:23:38.145Z,48.82
2023-03-14T02:24:38.412Z,59.30
2023-03-14T02:25:38.144Z,48.66
2023-03-14T02:26:38.128Z,63.81
2023-03-14T02:27:38.123Z,56.56
2023-03-14T02:28:38.108Z,58.65
2023-03-14T02:29:38.114Z,56.88
2023-03-14T02:30:38.093Z,55.43
2023-03-14T02:31:38.128Z,60.26
2023-03-14T02:32:39.163Z,48.82
2023-03-14T02:33:38.081Z,56.88
2023-03-14T02:34:38.096Z,54.30
2023-03-14T02:35:38.088Z,53.98
2023-03-14T02:36:38.052Z,63.16
2023-03-14T02:37:38.060Z,62.68
2023-03-14T02:38:38.091Z,51.88
2023-03-14T02:39:38.057Z,57.04
2023-03-14T02:40:38.033Z,55.11
2023-03-14T02:41:38.033Z,56.40
2023-03-14T02:42:38.023Z,67.35
2023-03-14T02:43:38.075Z,61.71
2023-03-14T02:44:38.049Z,59.30
2023-03-14T02:45:38.006Z,56.24
2023-03-14T02:46:37.986Z,63.65
2023-03-14T02:47:37.991Z,64.45
2023-03-14T02:48:37.996Z,67.19
2023-03-14T02:49:37.978Z,68.64
2023-03-14T02:50:37.957Z,75.41
2023-03-14T02:51:37.953Z,72.51
2023-03-14T02:52:37.949Z,57.20
2023-03-14T02:53:37.940Z,68.80
2023-03-14T02:54:37.960Z,54.46
2023-03-14T02:55:37.930Z,64.78
2023-03-14T02:56:37.933Z,63.16
2023-03-14T02:57:37.910Z,51.88
2023-03-14T02:58:37.902Z,59.14
2023-03-14T02:59:38.275Z,62.52
2023-03-14T03:00:38.897Z,67.19
2023-03-14T03:01:37.891Z,62.84
2023-03-14T03:02:37.878Z,65.10
2023-03-14T03:03:37.950Z,60.75
2023-03-14T03:04:37.876Z,67.51
2023-03-14T03:05:37.854Z,67.84
2023-03-14T03:06:37.843Z,59.62
2023-03-14T03:07:37.838Z,72.51
2023-03-14T03:08:37.845Z,63.65
2023-03-14T03:09:37.844Z,55.59
2023-03-14T03:10:37.910Z,58.49
2023-03-14T03:11:37.809Z,56.56
2023-03-14T03:12:37.801Z,72.35
2023-03-14T03:13:37.793Z,69.13
2023-03-14T03:14:37.809Z,59.78
2023-03-14T03:15:37.784Z,59.78
2023-03-14T03:16:37.816Z,60.42
2023-03-14T03:17:37.771Z,68.64
2023-03-14T03:18:37.769Z,70.25
2023-03-14T03:19:37.776Z,61.87
2023-03-14T03:20:37.761Z,65.26
2023-03-14T03:21:37.744Z,68.48
2023-03-14T03:22:37.753Z,69.29
2023-03-14T03:23:37.741Z,70.58
2023-03-14T03:24:37.740Z,67.35
2023-03-14T03:25:37.715Z,58.65
2023-03-14T03:26:37.713Z,59.62
2023-03-14T03:27:37.700Z,63.16
2023-03-14T03:28:37.702Z,67.51
2023-03-14T03:29:37.724Z,61.39
2023-03-14T03:30:37.709Z,61.55
2023-03-14T03:31:37.720Z,54.79
2023-03-14T03:32:37.755Z,54.46
2023-03-14T03:33:37.677Z,57.69
2023-03-14T03:34:37.675Z,52.37
2023-03-14T03:35:37.685Z,52.37
2023-03-14T03:36:37.655Z,60.59
2023-03-14T03:37:37.640Z,52.85
2023-03-14T03:38:37.640Z,54.95
2023-03-14T03:39:37.661Z,52.85
2023-03-14T03:40:37.627Z,56.72
2023-03-14T03:41:37.615Z,59.14
2023-03-14T03:42:37.614Z,58.65
2023-03-14T03:43:37.635Z,55.75
2023-03-14T03:44:37.607Z,56.72
2023-03-14T03:45:37.600Z,66.87
2023-03-14T03:46:37.586Z,62.20
2023-03-14T03:47:37.594Z,57.85
2023-03-14T03:48:37.581Z,63.00
2023-03-14T03:49:37.587Z,69.45
2023-03-14T03:50:37.561Z,66.71
2023-03-14T03:51:37.552Z,65.42
2023-03-14T03:52:37.545Z,70.09
2023-03-14T03:53:37.547Z,64.29
2023-03-14T03:54:37.552Z,60.10
2023-03-14T03:55:37.529Z,70.58
2023-03-14T03:56:37.520Z,60.10
2023-03-14T03:57:37.518Z,69.61
2023-03-14T03:58:37.508Z,57.52
2023-03-14T03:59:37.915Z,60.91
2023-03-14T04:00:37.522Z,61.07
2023-03-14T04:01:37.529Z,53.98
2023-03-14T04:02:37.534Z,57.52
2023-03-14T04:03:37.546Z,54.95
2023-03-14T04:04:37.603Z,56.72
2023-03-14T04:05:37.535Z,54.62
2023-03-14T04:06:37.566Z,62.04
2023-03-14T04:07:37.506Z,63.65
2023-03-14T04:08:37.535Z,53.82
2023-03-14T04:09:37.561Z,63.65
2023-03-14T04:10:37.434Z,59.94
2023-03-14T04:11:37.426Z,72.03
2023-03-14T04:12:37.510Z,69.45
2023-03-14T04:13:37.420Z,61.55
2023-03-14T04:14:37.406Z,68.48
2023-03-14T04:15:37.464Z,57.20
2023-03-14T04:16:37.443Z,62.20
2023-03-14T04:17:37.464Z,60.42
2023-03-14T04:18:37.443Z,58.49
2023-03-14T04:19:37.617Z,60.42
2023-03-14T04:20:37.373Z,65.42
2023-03-14T04:21:38.167Z,50.76
2023-03-14T04:22:37.358Z,57.85
2023-03-14T04:23:37.403Z,57.20
2023-03-14T04:24:37.379Z,71.70
2023-03-14T04:25:37.367Z,58.33
2023-03-14T04:26:37.341Z,60.10
2023-03-14T04:27:37.385Z,61.23
2023-03-14T04:28:37.314Z,57.52
2023-03-14T04:29:37.348Z,59.94
2023-03-14T04:30:38.917Z,56.24
2023-03-14T04:31:37.361Z,54.79
2023-03-14T04:32:37.381Z,52.53
2023-03-14T04:33:37.275Z,52.85
2023-03-14T04:34:37.268Z,54.62
2023-03-14T04:35:37.437Z,54.79
2023-03-14T04:36:39.780Z,55.27
2023-03-14T04:37:38.228Z,54.95
2023-03-14T04:38:37.222Z,67.68
2023-03-14T04:39:37.251Z,58.81
2023-03-14T04:40:37.221Z,55.27
2023-03-14T04:41:37.219Z,54.46
2023-03-14T04:42:37.208Z,58.81
2023-03-14T04:43:37.212Z,54.79
2023-03-14T04:44:37.216Z,54.46
2023-03-14T04:45:37.174Z,55.91
2023-03-14T04:46:37.238Z,56.72
2023-03-14T04:47:37.162Z,52.69
2023-03-14T04:48:37.153Z,54.30
2023-03-14T04:49:37.195Z,52.21
2023-03-14T04:50:38.144Z,56.24
2023-03-14T04:51:37.182Z,56.88
2023-03-14T04:52:37.155Z,56.40
2023-03-14T04:53:37.153Z,62.04
2023-03-14T04:54:37.143Z,57.04
2023-03-14T04:55:37.137Z,61.07
2023-03-14T04:56:37.093Z,58.33
2023-03-14T04:57:39.159Z,60.42
2023-03-14T04:58:37.098Z,56.24
2023-03-14T04:59:37.095Z,57.04
2023-03-14T05:00:39.719Z,60.59
2023-03-14T05:01:38.080Z,53.17
2023-03-14T05:02:38.084Z,58.97
2023-03-14T05:03:37.067Z,64.78
2023-03-14T05:04:37.065Z,56.72
2023-03-14T05:05:37.037Z,55.59
2023-03-14T05:06:37.040Z,54.30
2023-03-14T05:07:37.030Z,55.59
2023-03-14T05:08:37.009Z,56.88
2023-03-14T05:09:37.025Z,56.88
2023-03-14T05:10:36.987Z,56.56
2023-03-14T05:11:38.016Z,57.85
2023-03-14T05:12:36.990Z,55.91
2023-03-14T05:13:39.200Z,55.59
2023-03-14T05:14:36.985Z,56.56
2023-03-14T05:15:36.985Z,55.91
2023-03-14T05:16:36.981Z,63.65
2023-03-14T05:17:36.952Z,54.62
2023-03-14T05:18:36.937Z,57.69
2023-03-14T05:19:36.939Z,57.69
2023-03-14T05:20:36.948Z,55.43
2023-03-14T05:21:36.924Z,57.52
2023-03-14T05:22:36.919Z,58.81
2023-03-14T05:23:36.910Z,59.14
2023-03-14T05:24:36.913Z,60.26
2023-03-14T05:25:37.201Z,56.72
2023-03-14T05:26:36.884Z,57.69
2023-03-14T05:27:36.884Z,59.94
2023-03-14T05:28:36.895Z,57.85
2023-03-14T05:29:36.873Z,70.09
2023-03-14T05:30:36.889Z,64.29
2023-03-14T05:31:36.877Z,56.56
2023-03-14T05:32:36.882Z,64.13
2023-03-14T05:33:36.846Z,57.69
2023-03-14T05:34:36.824Z,57.69
2023-03-14T05:35:36.873Z,60.10
2023-03-14T05:36:36.834Z,65.74
2023-03-14T05:37:36.815Z,62.84
2023-03-14T05:38:36.810Z,58.65
2023-03-14T05:39:36.821Z,65.74
2023-03-14T05:40:36.834Z,63.97
2023-03-14T05:41:36.787Z,59.30
2023-03-14T05:42:36.794Z,60.26
2023-03-14T05:43:36.780Z,68.00
2023-03-14T05:44:36.772Z,65.58
2023-03-14T05:45:36.835Z,59.78
2023-03-14T05:46:36.778Z,60.10
2023-03-14T05:47:36.749Z,67.19
2023-03-14T05:48:36.747Z,64.45
2023-03-14T05:49:36.733Z,64.94
2023-03-14T05:50:36.742Z,63.97
2023-03-14T05:51:36.724Z,58.65
2023-03-14T05:52:36.710Z,67.35
2023-03-14T05:53:36.712Z,67.03
2023-03-14T05:54:36.713Z,66.55
2023-03-14T05:55:36.723Z,63.16
2023-03-14T05:56:36.702Z,72.99
2023-03-14T05:57:36.674Z,64.13
2023-03-14T05:58:36.682Z,63.97
2023-03-14T05:59:36.668Z,64.61
2023-03-14T06:00:36.675Z,69.77
2023-03-14T06:01:36.648Z,67.03
2023-03-14T06:02:36.639Z,63.16
2023-03-14T06:03:36.718Z,68.80
2023-03-14T06:04:36.636Z,65.26
2023-03-14T06:05:36.657Z,66.23
2023-03-14T06:06:36.624Z,70.74
2023-03-14T06:07:36.614Z,67.84
2023-03-14T06:08:36.637Z,68.96
2023-03-14T06:09:36.714Z,71.70
2023-03-14T06:10:36.612Z,67.35
2023-03-14T06:11:36.602Z,58.01
2023-03-14T06:12:36.603Z,60.42
2023-03-14T06:13:36.578Z,61.23
2023-03-14T06:14:36.563Z,59.46
2023-03-14T06:15:36.576Z,73.96
2023-03-14T06:16:36.600Z,67.35
2023-03-14T06:17:36.539Z,59.78
2023-03-14T06:18:36.530Z,59.30
2023-03-14T06:19:36.529Z,62.84
2023-03-14T06:20:36.570Z,66.55
2023-03-14T06:21:36.514Z,58.17
2023-03-14T06:22:36.512Z,75.57
2023-03-14T06:23:36.512Z,71.87
2023-03-14T06:24:36.495Z,65.74
2023-03-14T06:25:36.516Z,61.87
2023-03-14T06:26:36.485Z,66.06
2023-03-14T06:27:36.538Z,61.07
2023-03-14T06:28:36.473Z,67.03
2023-03-14T06:29:36.460Z,62.04
2023-03-14T06:30:36.499Z,64.61
2023-03-14T06:31:36.452Z,60.59
2023-03-14T06:32:36.512Z,62.20
2023-03-14T06:33:36.433Z,61.39
2023-03-14T06:34:36.449Z,63.97
2023-03-14T06:35:36.484Z,61.87
2023-03-14T06:36:36.425Z,69.13
2023-03-14T06:37:36.420Z,59.78
2023-03-14T06:38:36.403Z,62.84
2023-03-14T06:39:36.389Z,66.55
2023-03-14T06:40:36.413Z,59.46
2023-03-14T06:41:36.389Z,59.46
2023-03-14T06:42:36.376Z,61.23
2023-03-14T06:43:36.373Z,63.16
2023-03-14T06:44:36.373Z,74.44
2023-03-14T06:45:36.368Z,68.00
2023-03-14T06:46:36.351Z,64.78
2023-03-14T06:47:36.346Z,60.75
2023-03-14T06:48:36.338Z,64.94
2023-03-14T06:49:36.332Z,59.78
2023-03-14T06:50:36.362Z,57.85
2023-03-14T06:51:36.312Z,54.30
2023-03-14T06:52:36.339Z,55.59
2023-03-14T06:53:36.301Z,68.48
2023-03-14T06:54:36.301Z,61.23
2023-03-14T06:55:36.305Z,61.55
2023-03-14T06:56:36.285Z,59.62
2023-03-14T06:57:36.280Z,66.71
2023-03-14T06:58:36.271Z,64.45
2023-03-14T06:59:36.263Z,55.91
2023-03-14T07:00:36.286Z,58.81
2023-03-14T07:01:36.429Z,56.72
2023-03-14T07:02:43.116Z,60.26
2023-03-14T07:03:38.231Z,60.26
2023-03-14T07:04:36.298Z,56.07
2023-03-14T07:05:36.249Z,59.62
2023-03-14T07:06:36.220Z,65.74
2023-03-14T07:07:36.205Z,59.30
2023-03-14T07:08:36.196Z,60.26
2023-03-14T07:09:36.195Z,57.04
2023-03-14T07:10:36.201Z,57.85
2023-03-14T07:11:36.174Z,63.16
2023-03-14T07:12:36.173Z,60.42
2023-03-14T07:13:36.170Z,58.81
2023-03-14T07:14:36.182Z,58.01
2023-03-14T07:15:36.246Z,60.91
2023-03-14T07:16:36.159Z,57.20
2023-03-14T07:17:37.036Z,58.01
2023-03-14T07:18:36.137Z,59.78
2023-03-14T07:19:36.165Z,62.36
2023-03-14T07:20:36.145Z,59.94
2023-03-14T07:21:36.122Z,57.69
2023-03-14T07:22:36.117Z,57.04
2023-03-14T07:23:36.112Z,62.84
2023-03-14T07:24:36.097Z,60.26
2023-03-14T07:25:36.105Z,54.95
2023-03-14T07:26:36.090Z,54.46
2023-03-14T07:27:36.067Z,55.91
2023-03-14T07:28:36.074Z,60.91
2023-03-14T07:29:36.060Z,65.42
2023-03-14T07:30:36.078Z,57.36
2023-03-14T07:31:36.045Z,59.46
2023-03-14T07:32:36.065Z,56.40
2023-03-14T07:33:36.023Z,57.52
2023-03-14T07:34:37.031Z,57.04
2023-03-14T07:35:36.087Z,56.88
2023-03-14T07:36:36.004Z,64.29
2023-03-14T07:37:36.013Z,56.56
2023-03-14T07:38:35.999Z,55.91
2023-03-14T07:39:35.993Z,57.36
2023-03-14T07:40:35.999Z,55.43
2023-03-14T07:41:35.994Z,60.10
2023-03-14T07:42:35.996Z,61.07
2023-03-14T07:43:35.966Z,57.52
2023-03-14T07:44:35.986Z,58.33
2023-03-14T07:45:42.423Z,61.71
2023-03-14T07:46:38.013Z,62.68
2023-03-14T07:47:35.939Z,59.94
2023-03-14T07:48:35.947Z,61.39
2023-03-14T07:49:35.930Z,57.20
2023-03-14T07:50:35.937Z,58.81
2023-03-14T07:51:35.917Z,58.81
2023-03-14T07:52:35.904Z,55.43
2023-03-14T07:53:35.901Z,57.04
2023-03-14T07:54:35.894Z,56.56
2023-03-14T07:55:35.906Z,61.23
2023-03-14T07:56:35.877Z,60.59
2023-03-14T07:57:35.886Z,60.91
2023-03-14T07:58:35.858Z,62.36
2023-03-14T07:59:35.859Z,72.51
2023-03-14T08:00:35.883Z,64.61
2023-03-14T08:01:35.849Z,66.71
2023-03-14T08:02:35.881Z,65.42
2023-03-14T08:03:35.890Z,68.16
2023-03-14T08:04:35.822Z,67.03
2023-03-14T08:05:36.133Z,60.59
2023-03-14T08:06:35.802Z,66.06
2023-03-14T08:07:35.826Z,65.90
2023-03-14T08:08:35.825Z,65.74
2023-03-14T08:09:35.791Z,64.78
2023-03-14T08:10:35.813Z,64.78
2023-03-14T08:11:35.784Z,67.51
2023-03-14T08:12:35.768Z,72.83
2023-03-14T08:13:35.778Z,63.49
2023-03-14T08:14:35.753Z,63.65
2023-03-14T08:15:35.755Z,65.74
2023-03-14T08:16:35.798Z,60.42
2023-03-14T08:17:35.745Z,58.17
2023-03-14T08:18:35.726Z,61.87
2023-03-14T08:19:35.760Z,63.00
2023-03-14T08:20:35.750Z,65.10
2023-03-14T08:21:35.704Z,60.26
2023-03-14T08:22:35.703Z,58.49
2023-03-14T08:23:35.700Z,68.32
2023-03-14T08:24:35.714Z,61.23
2023-03-14T08:25:35.723Z,59.94
2023-03-14T08:26:35.716Z,55.75
2023-03-14T08:27:35.685Z,58.97
2023-03-14T08:28:35.667Z,60.91
2023-03-14T08:29:35.674Z,57.20
2023-03-14T08:30:35.702Z,57.04
2023-03-14T08:31:35.712Z,63.33
2023-03-14T08:32:35.669Z,63.49
2023-03-14T08:33:35.653Z,56.07
2023-03-14T08:34:35.745Z,66.87
2023-03-14T08:35:35.631Z,65.42
2023-03-14T08:36:35.691Z,61.07
2023-03-14T08:37:35.628Z,63.33
2023-03-14T08:38:35.595Z,67.03
2023-03-14T08:39:35.610Z,60.42
2023-03-14T08:40:35.641Z,57.85
2023-03-14T08:41:35.604Z,61.39
2023-03-14T08:42:35.580Z,63.16
2023-03-14T08:43:35.698Z,62.68
2023-03-14T08:44:35.636Z,65.74
2023-03-14T08:45:37.956Z,57.69
2023-03-14T08:46:35.618Z,71.87
2023-03-14T08:47:35.538Z,57.69
2023-03-14T08:48:35.536Z,56.56
2023-03-14T08:49:35.525Z,57.85
2023-03-14T08:50:35.536Z,67.35
2023-03-14T08:51:35.544Z,59.94
2023-03-14T08:52:35.547Z,61.55
2023-03-14T08:53:35.515Z,61.55
2023-03-14T08:54:35.498Z,65.42
2023-03-14T08:55:35.481Z,61.07
2023-03-14T08:56:35.495Z,62.68
2023-03-14T08:57:35.458Z,63.49
2023-03-14T08:58:35.458Z,67.51
2023-03-14T08:59:35.487Z,58.97
2023-03-14T09:00:35.447Z,60.75
2023-03-14T09:01:35.522Z,58.65
2023-03-14T09:02:35.438Z,63.81
2023-03-14T09:03:35.427Z,71.70
2023-03-14T09:04:35.465Z,62.84
2023-03-14T09:05:35.416Z,59.14
2023-03-14T09:06:35.443Z,68.48
2023-03-14T09:07:35.403Z,57.85
2023-03-14T09:08:37.257Z,55.75
2023-03-14T09:09:35.412Z,64.29
2023-03-14T09:10:35.372Z,71.87
2023-03-14T09:11:35.396Z,59.78
2023-03-14T09:12:35.388Z,56.07
2023-03-14T09:13:35.357Z,63.97
2023-03-14T09:14:35.362Z,60.91
2023-03-14T09:15:35.350Z,60.42
2023-03-14T09:16:35.397Z,60.91
2023-03-14T09:17:35.340Z,63.65
2023-03-14T09:18:35.419Z,66.55
2023-03-14T09:19:35.317Z,63.97
2023-03-14T09:20:35.316Z,60.42
2023-03-14T09:21:35.331Z,59.46
2023-03-14T09:22:35.300Z,58.81
2023-03-14T09:23:36.309Z,60.26
2023-03-14T09:24:35.278Z,58.65
2023-03-14T09:25:35.268Z,61.07
2023-03-14T09:26:35.282Z,59.78
2023-03-14T09:27:35.287Z,60.42
2023-03-14T09:28:35.252Z,57.85
2023-03-14T09:29:35.257Z,64.61
2023-03-14T09:30:35.237Z,57.20
2023-03-14T09:31:35.281Z,58.01
2023-03-14T09:32:35.233Z,57.36
2023-03-14T09:33:35.224Z,62.20
2023-03-14T09:34:36.848Z,61.55
2023-03-14T09:35:36.273Z,55.75
2023-03-14T09:36:35.216Z,55.75
2023-03-14T09:37:35.196Z,57.04
2023-03-14T09:38:35.188Z,57.04
2023-03-14T09:39:35.188Z,60.75
2023-03-14T09:40:35.179Z,61.23
2023-03-14T09:41:35.189Z,53.82
2023-03-14T09:42:35.179Z,58.17
2023-03-14T09:43:35.176Z,61.87
2023-03-14T09:44:35.162Z,56.56
2023-03-14T09:45:35.154Z,60.42
2023-03-14T09:46:35.159Z,64.94
2023-03-14T09:47:35.814Z,61.07
2023-03-14T09:48:36.117Z,59.62
2023-03-14T09:49:35.123Z,61.39
2023-03-14T09:50:35.095Z,56.24
2023-03-14T09:51:35.119Z,58.97
2023-03-14T09:52:35.108Z,65.90
2023-03-14T09:53:35.081Z,66.55
2023-03-14T09:54:35.084Z,56.56
2023-03-14T09:55:36.678Z,63.16
2023-03-14T09:56:36.101Z,61.07
2023-03-14T09:57:35.049Z,65.90
2023-03-14T09:58:35.037Z,60.75
2023-03-14T09:59:35.034Z,57.85
2023-03-14T10:00:35.025Z,73.32
2023-03-14T10:01:35.099Z,58.49
2023-03-14T10:02:35.006Z,62.52
2023-03-14T10:03:35.014Z,65.58
2023-03-14T10:04:35.160Z,76.70
2023-03-14T10:05:35.019Z,75.73
2023-03-14T10:06:35.005Z,61.55
2023-03-14T10:07:34.988Z,59.62
2023-03-14T10:08:34.972Z,61.71
2023-03-14T10:09:34.965Z,62.20
2023-03-14T10:10:34.981Z,60.75
2023-03-14T10:11:34.973Z,60.26
2023-03-14T10:12:35.019Z,67.35
2023-03-14T10:13:34.936Z,62.04
2023-03-14T10:14:34.935Z,55.91
2023-03-14T10:15:34.934Z,56.24
2023-03-14T10:16:34.936Z,69.61
2023-03-14T10:17:34.938Z,57.04
2023-03-14T10:18:34.898Z,66.55
2023-03-14T10:19:34.928Z,57.36
2023-03-14T10:20:34.965Z,61.87
2023-03-14T10:21:34.896Z,68.48
2023-03-14T10:22:34.882Z,64.94
2023-03-14T10:23:34.865Z,56.88
2023-03-14T10:24:34.862Z,64.94
2023-03-14T10:25:34.857Z,69.13
2023-03-14T10:26:34.888Z,68.80
2023-03-14T10:27:35.864Z,57.04
2023-03-14T10:28:34.872Z,64.94
2023-03-14T10:29:34.839Z,61.71
2023-03-14T10:30:34.845Z,57.69
2023-03-14T10:31:34.828Z,57.04
2023-03-14T10:32:34.852Z,67.03
2023-03-14T10:33:34.805Z,63.81
2023-03-14T10:34:34.804Z,69.29
2023-03-14T10:35:34.830Z,64.94
2023-03-14T10:36:34.963Z,58.97
2023-03-14T10:37:34.959Z,69.45
2023-03-14T10:38:34.772Z,59.62
2023-03-14T10:39:34.776Z,55.43
2023-03-14T10:40:34.770Z,58.65
2023-03-14T10:41:34.746Z,64.45
2023-03-14T10:42:34.774Z,70.25
2023-03-14T10:43:34.744Z,63.65
2023-03-14T10:44:34.753Z,65.10
2023-03-14T10:45:34.725Z,68.16
2023-03-14T10:46:34.796Z,59.94
2023-03-14T10:47:34.736Z,57.52
2023-03-14T10:48:34.702Z,65.10
2023-03-14T10:49:34.715Z,59.30
2023-03-14T10:50:34.701Z,66.71
2023-03-14T10:51:34.686Z,56.40
2023-03-14T10:52:57.762Z,65.10
2023-03-14T10:53:36.674Z,56.88
2023-03-14T10:54:34.663Z,60.10
2023-03-14T10:55:34.664Z,63.16
2023-03-14T10:56:34.658Z,60.75
2023-03-14T10:57:34.683Z,58.65
2023-03-14T10:58:34.639Z,62.52
2023-03-14T10:59:34.642Z,65.42
2023-03-14T11:00:34.636Z,61.39
2023-03-14T11:01:34.714Z,59.14
2023-03-14T11:02:34.635Z,66.71
2023-03-14T11:03:34.608Z,62.36
2023-03-14T11:04:34.651Z,67.51
2023-03-14T11:05:34.602Z,63.49
2023-03-14T11:06:34.584Z,62.20
2023-03-14T11:07:34.605Z,62.84
2023-03-14T11:08:34.579Z,63.65
2023-03-14T11:09:34.586Z,56.88
2023-03-14T11:10:34.558Z,64.78
2023-03-14T11:11:34.557Z,58.33
2023-03-14T11:12:34.587Z,69.77
2023-03-14T11:13:34.543Z,67.03
2023-03-14T11:14:34.540Z,70.74
2023-03-14T11:15:34.616Z,63.33
2023-03-14T11:16:34.515Z,61.87
2023-03-14T11:17:34.519Z,67.84
2023-03-14T11:18:34.505Z,68.48
2023-03-14T11:19:35.685Z,58.33
2023-03-14T11:20:35.506Z,69.61
2023-03-14T11:21:34.484Z,63.97
2023-03-14T11:22:34.497Z,58.01
2023-03-14T11:23:34.464Z,57.69
2023-03-14T11:24:34.467Z,58.49
2023-03-14T11:25:34.464Z,67.51
2023-03-14T11:26:34.448Z,59.30
2023-03-14T11:27:34.472Z,56.07
2023-03-14T11:28:34.471Z,60.42
2023-03-14T11:29:34.457Z,61.07
2023-03-14T11:30:34.442Z,56.24
2023-03-14T11:31:34.460Z,55.27
2023-03-14T11:32:34.447Z,58.17
2023-03-14T11:33:34.464Z,62.52
2023-03-14T11:34:34.408Z,56.24
2023-03-14T11:35:34.414Z,55.91
2023-03-14T11:36:34.377Z,59.78
2023-03-14T11:37:34.396Z,68.32
2023-03-14T11:38:34.388Z,59.62
2023-03-14T11:39:34.360Z,58.49
2023-03-14T11:40:34.361Z,60.59
2023-03-14T11:41:34.352Z,60.10
2023-03-14T11:42:34.359Z,61.39
2023-03-14T11:43:34.336Z,60.10
2023-03-14T11:44:34.329Z,56.56
2023-03-14T11:45:34.342Z,58.33
2023-03-14T11:46:34.378Z,60.26
2023-03-14T11:47:34.317Z,60.26
2023-03-14T11:48:34.299Z,57.85
2023-03-14T11:49:34.291Z,59.30
2023-03-14T11:50:34.326Z,56.40
2023-03-14T11:51:34.363Z,51.56
2023-03-14T11:52:34.308Z,59.78
2023-03-14T11:53:34.271Z,58.81
2023-03-14T11:54:34.295Z,59.46
2023-03-14T11:55:34.264Z,61.55
2023-03-14T11:56:34.239Z,59.62
2023-03-14T11:57:34.261Z,59.94
2023-03-14T11:58:34.229Z,59.62
2023-03-14T11:59:34.242Z,56.72
2023-03-14T12:00:34.213Z,58.97
2023-03-14T12:01:34.250Z,58.65
2023-03-14T12:02:34.214Z,56.40
2023-03-14T12:03:34.192Z,62.20
2023-03-14T12:04:34.193Z,59.14
2023-03-14T12:05:34.176Z,59.78
2023-03-14T12:06:34.730Z,59.14
2023-03-14T12:07:34.180Z,59.30
2023-03-14T12:08:34.154Z,60.42
2023-03-14T12:09:34.151Z,59.62
2023-03-14T12:10:34.137Z,63.81
2023-03-14T12:11:34.129Z,57.69
2023-03-14T12:12:34.165Z,56.56
2023-03-14T12:13:34.122Z,57.20
2023-03-14T12:14:34.114Z,58.65
2023-03-14T12:15:34.110Z,55.91
2023-03-14T12:16:34.162Z,59.62
2023-03-14T12:17:34.110Z,55.75
2023-03-14T12:18:34.174Z,73.32
2023-03-14T12:19:34.083Z,63.81
2023-03-14T12:20:34.069Z,57.20
2023-03-14T12:21:34.082Z,63.00
2023-03-14T12:22:34.051Z,63.97
2023-03-14T12:23:34.076Z,61.23
2023-03-14T12:24:34.056Z,57.52
2023-03-14T12:25:34.031Z,55.43
2023-03-14T12:26:34.022Z,55.59
2023-03-14T12:27:34.014Z,55.27
2023-03-14T12:28:34.044Z,56.72
2023-03-14T12:29:34.199Z,56.56
2023-03-14T12:30:34.016Z,60.91
2023-03-14T12:31:34.012Z,57.20
2023-03-14T12:32:34.045Z,57.36
2023-03-14T12:33:34.011Z,59.94
2023-03-14T12:34:33.991Z,54.62
2023-03-14T12:35:34.032Z,54.14
2023-03-14T12:36:33.960Z,52.05
2023-03-14T12:37:33.962Z,53.50
2023-03-14T12:38:33.967Z,54.62
2023-03-14T12:39:33.948Z,54.30
2023-03-14T12:40:33.977Z,51.08
2023-03-14T12:41:33.932Z,53.17
2023-03-14T12:42:44.473Z,51.72
2023-03-14T12:43:35.949Z,55.27
2023-03-14T12:44:33.904Z,60.26
2023-03-14T12:45:33.973Z,54.95
2023-03-14T12:46:33.924Z,63.16
2023-03-14T12:47:33.903Z,65.26
2023-03-14T12:48:33.897Z,50.92
2023-03-14T12:49:33.880Z,53.82
2023-03-14T12:50:34.160Z,52.37
2023-03-14T12:51:33.854Z,53.01
2023-03-14T12:52:33.864Z,67.68